sensor_id;sensor_type;location;lat;lon;timestamp;temperature;humidity
66608;DHT22;53462;39.616;8.824;2023-06-22T06:34:35;27.80;47.50
66608;DHT22;53462;39.616;8.824;2023-06-22T06:37:01;28.10;47.20
66608;DHT22;53462;39.616;8.824;2023-06-22T06:39:27;28.30;46.30
66608;DHT22;53462;39.616;8.824;2023-06-22T06:41:53;28.40;46.00
66608;DHT22;53462;39.616;8.824;2023-06-22T06:44:19;28.40;45.50
66608;DHT22;53462;39.616;8.824;2023-06-22T06:46:45;28.50;45.40
66608;DHT22;53462;39.616;8.824;2023-06-22T06:49:11;28.60;45.30
66608;DHT22;53462;39.616;8.824;2023-06-22T06:51:37;28.90;44.90
66608;DHT22;53462;39.616;8.824;2023-06-22T06:54:03;29.20;45.00
66608;DHT22;53462;39.616;8.824;2023-06-22T06:56:29;29.20;44.00
66608;DHT22;53462;39.616;8.824;2023-06-22T06:58:55;29.40;44.20
66608;DHT22;53462;39.616;8.824;2023-06-22T07:01:21;29.40;43.90
66608;DHT22;53462;39.616;8.824;2023-06-22T07:03:47;29.40;44.10
66608;DHT22;53462;39.616;8.824;2023-06-22T07:06:13;29.60;44.50
66608;DHT22;53462;39.616;8.824;2023-06-22T07:08:39;29.60;45.30
66608;DHT22;53462;39.616;8.824;2023-06-22T07:11:05;29.70;44.90
66608;DHT22;53462;39.616;8.824;2023-06-22T07:13:31;29.50;45.30
66608;DHT22;53462;39.616;8.824;2023-06-22T07:15:57;29.50;45.70
66608;DHT22;53462;39.616;8.824;2023-06-22T07:18:23;29.80;45.70
66608;DHT22;53462;39.616;8.824;2023-06-22T07:20:49;30.00;45.90
66608;DHT22;53462;39.616;8.824;2023-06-22T07:23:16;30.10;46.00
66608;DHT22;53462;39.616;8.824;2023-06-22T07:25:42;30.30;45.80
66608;DHT22;53462;39.616;8.824;2023-06-22T07:28:08;30.20;45.80
66608;DHT22;53462;39.616;8.824;2023-06-22T07:30:35;30.30;45.90
66608;DHT22;53462;39.616;8.824;2023-06-22T07:33:01;30.80;45.90
66608;DHT22;53462;39.616;8.824;2023-06-22T07:35:33;30.80;45.40
66608;DHT22;53462;39.616;8.824;2023-06-22T07:37:59;30.80;45.80
66608;DHT22;53462;39.616;8.824;2023-06-22T07:40:26;31.00;45.60
66608;DHT22;53462;39.616;8.824;2023-06-22T07:42:52;30.90;46.40
66608;DHT22;53462;39.616;8.824;2023-06-22T07:45:19;31.00;45.40
66608;DHT22;53462;39.616;8.824;2023-06-22T07:47:45;31.40;44.70
66608;DHT22;53462;39.616;8.824;2023-06-22T07:50:11;31.50;44.00
66608;DHT22;53462;39.616;8.824;2023-06-22T07:52:37;31.50;43.60
66608;DHT22;53462;39.616;8.824;2023-06-22T07:55:03;31.60;43.70
66608;DHT22;53462;39.616;8.824;2023-06-22T07:57:30;31.90;42.70
66608;DHT22;53462;39.616;8.824;2023-06-22T08:00:00;32.00;41.90
66608;DHT22;53462;39.616;8.824;2023-06-22T08:02:26;32.40;42.10
66608;DHT22;53462;39.616;8.824;2023-06-22T08:04:52;32.80;41.90
66608;DHT22;53462;39.616;8.824;2023-06-22T08:07:18;32.90;40.30
66608;DHT22;53462;39.616;8.824;2023-06-22T08:09:48;32.80;40.10
66608;DHT22;53462;39.616;8.824;2023-06-22T08:12:15;32.90;39.50
66608;DHT22;53462;39.616;8.824;2023-06-22T08:14:42;33.10;38.80
66608;DHT22;53462;39.616;8.824;2023-06-22T08:17:12;33.30;39.00
66608;DHT22;53462;39.616;8.824;2023-06-22T08:19:39;33.90;38.70
66608;DHT22;53462;39.616;8.824;2023-06-22T08:22:05;33.70;37.40
66608;DHT22;53462;39.616;8.824;2023-06-22T08:24:31;33.70;37.70
66608;DHT22;53462;39.616;8.824;2023-06-22T08:26:57;33.90;37.70
66608;DHT22;53462;39.616;8.824;2023-06-22T08:29:23;34.00;37.70
66608;DHT22;53462;39.616;8.824;2023-06-22T08:31:49;34.40;37.50
66608;DHT22;53462;39.616;8.824;2023-06-22T08:34:15;34.40;36.90
66608;DHT22;53462;39.616;8.824;2023-06-22T08:36:41;33.80;38.40
66608;DHT22;53462;39.616;8.824;2023-06-22T08:39:09;33.50;37.90
66608;DHT22;53462;39.616;8.824;2023-06-22T08:41:34;33.60;38.20
66608;DHT22;53462;39.616;8.824;2023-06-22T08:44:00;33.80;38.20
66608;DHT22;53462;39.616;8.824;2023-06-22T08:46:26;34.10;37.30
66608;DHT22;53462;39.616;8.824;2023-06-22T08:48:58;34.20;36.60
66608;DHT22;53462;39.616;8.824;2023-06-22T08:51:25;34.50;36.60
66608;DHT22;53462;39.616;8.824;2023-06-22T08:53:51;34.60;36.60
66608;DHT22;53462;39.616;8.824;2023-06-22T08:56:17;35.00;36.30
66608;DHT22;53462;39.616;8.824;2023-06-22T08:58:43;35.20;34.60
66608;DHT22;53462;39.616;8.824;2023-06-22T09:01:09;35.40;34.10
66608;DHT22;53462;39.616;8.824;2023-06-22T09:03:35;35.30;34.10
66608;DHT22;53462;39.616;8.824;2023-06-22T09:06:03;35.50;33.40
66608;DHT22;53462;39.616;8.824;2023-06-22T09:08:29;35.60;34.40
66608;DHT22;53462;39.616;8.824;2023-06-22T09:10:55;35.90;33.80
66608;DHT22;53462;39.616;8.824;2023-06-22T09:13:21;36.00;33.80
66608;DHT22;53462;39.616;8.824;2023-06-22T09:15:48;36.20;33.60
66608;DHT22;53462;39.616;8.824;2023-06-22T09:18:14;36.20;33.20
66608;DHT22;53462;39.616;8.824;2023-06-22T09:20:40;36.40;33.20
66608;DHT22;53462;39.616;8.824;2023-06-22T09:23:06;36.20;34.00
66608;DHT22;53462;39.616;8.824;2023-06-22T09:25:32;36.60;33.40
66608;DHT22;53462;39.616;8.824;2023-06-22T09:27:58;36.60;33.40
66608;DHT22;53462;39.616;8.824;2023-06-22T09:30:23;36.40;33.30
66608;DHT22;53462;39.616;8.824;2023-06-22T09:32:49;36.10;33.20
66608;DHT22;53462;39.616;8.824;2023-06-22T09:35:15;36.40;33.00
66608;DHT22;53462;39.616;8.824;2023-06-22T09:37:41;36.30;33.20
66608;DHT22;53462;39.616;8.824;2023-06-22T09:40:08;36.60;32.20
66608;DHT22;53462;39.616;8.824;2023-06-22T09:42:38;37.00;32.50
66608;DHT22;53462;39.616;8.824;2023-06-22T09:45:05;37.10;32.10
66608;DHT22;53462;39.616;8.824;2023-06-22T09:47:31;37.20;32.20
66608;DHT22;53462;39.616;8.824;2023-06-22T09:49:57;37.00;31.60
66608;DHT22;53462;39.616;8.824;2023-06-22T09:52:25;36.90;32.20
66608;DHT22;53462;39.616;8.824;2023-06-22T09:54:51;36.80;31.60
66608;DHT22;53462;39.616;8.824;2023-06-22T09:57:17;37.30;30.90
66608;DHT22;53462;39.616;8.824;2023-06-22T09:59:43;37.20;30.70
66608;DHT22;53462;39.616;8.824;2023-06-22T10:02:09;37.40;30.70
66608;DHT22;53462;39.616;8.824;2023-06-22T10:04:35;37.20;31.30
66608;DHT22;53462;39.616;8.824;2023-06-22T10:07:02;37.30;31.50
66608;DHT22;53462;39.616;8.824;2023-06-22T10:09:28;37.00;31.50
66608;DHT22;53462;39.616;8.824;2023-06-22T10:11:54;37.10;31.60
66608;DHT22;53462;39.616;8.824;2023-06-22T10:14:20;37.20;31.10
66608;DHT22;53462;39.616;8.824;2023-06-22T10:16:48;37.20;31.30
66608;DHT22;53462;39.616;8.824;2023-06-22T10:19:14;37.50;31.40
66608;DHT22;53462;39.616;8.824;2023-06-22T10:21:39;37.20;32.00
66608;DHT22;53462;39.616;8.824;2023-06-22T10:24:06;37.30;30.50
66608;DHT22;53462;39.616;8.824;2023-06-22T10:26:35;37.30;30.90
66608;DHT22;53462;39.616;8.824;2023-06-22T10:29:04;37.50;31.30
66608;DHT22;53462;39.616;8.824;2023-06-22T10:31:30;37.50;31.10
66608;DHT22;53462;39.616;8.824;2023-06-22T10:33:56;37.40;30.90
66608;DHT22;53462;39.616;8.824;2023-06-22T10:36:22;37.30;31.20
66608;DHT22;53462;39.616;8.824;2023-06-22T10:38:49;37.90;30.70
66608;DHT22;53462;39.616;8.824;2023-06-22T10:41:15;37.50;29.50
66608;DHT22;53462;39.616;8.824;2023-06-22T10:43:42;37.90;30.10
66608;DHT22;53462;39.616;8.824;2023-06-22T10:46:09;38.00;29.10
66608;DHT22;53462;39.616;8.824;2023-06-22T10:48:35;38.40;29.80
66608;DHT22;53462;39.616;8.824;2023-06-22T10:51:01;38.60;29.40
66608;DHT22;53462;39.616;8.824;2023-06-22T10:53:27;38.80;29.20
66608;DHT22;53462;39.616;8.824;2023-06-22T10:55:53;38.40;30.20
66608;DHT22;53462;39.616;8.824;2023-06-22T10:58:20;38.50;30.40
66608;DHT22;53462;39.616;8.824;2023-06-22T11:00:46;37.90;29.60
66608;DHT22;53462;39.616;8.824;2023-06-22T11:03:12;38.00;30.20
66608;DHT22;53462;39.616;8.824;2023-06-22T11:05:40;38.30;29.20
66608;DHT22;53462;39.616;8.824;2023-06-22T11:08:05;38.10;29.60
66608;DHT22;53462;39.616;8.824;2023-06-22T11:10:31;37.90;30.70
66608;DHT22;53462;39.616;8.824;2023-06-22T11:12:57;38.20;30.00
66608;DHT22;53462;39.616;8.824;2023-06-22T11:15:25;38.30;30.30
66608;DHT22;53462;39.616;8.824;2023-06-22T11:17:51;38.40;30.00
66608;DHT22;53462;39.616;8.824;2023-06-22T11:20:16;38.70;29.20
66608;DHT22;53462;39.616;8.824;2023-06-22T11:22:42;38.80;29.60
66608;DHT22;53462;39.616;8.824;2023-06-22T11:25:09;38.90;29.30
66608;DHT22;53462;39.616;8.824;2023-06-22T11:27:35;39.00;29.90
66608;DHT22;53462;39.616;8.824;2023-06-22T11:30:01;39.20;28.10
66608;DHT22;53462;39.616;8.824;2023-06-22T11:32:27;38.80;28.00
66608;DHT22;53462;39.616;8.824;2023-06-22T11:34:52;38.70;28.90
66608;DHT22;53462;39.616;8.824;2023-06-22T11:37:18;39.20;28.40
66608;DHT22;53462;39.616;8.824;2023-06-22T11:39:44;39.60;28.10
66608;DHT22;53462;39.616;8.824;2023-06-22T11:42:11;39.50;28.30
66608;DHT22;53462;39.616;8.824;2023-06-22T11:44:37;39.40;27.70
66608;DHT22;53462;39.616;8.824;2023-06-22T11:47:03;39.30;28.40
66608;DHT22;53462;39.616;8.824;2023-06-22T11:49:30;39.40;27.40
66608;DHT22;53462;39.616;8.824;2023-06-22T11:51:56;39.30;27.30
66608;DHT22;53462;39.616;8.824;2023-06-22T11:54:22;39.60;28.00
66608;DHT22;53462;39.616;8.824;2023-06-22T11:56:48;39.30;28.00
66608;DHT22;53462;39.616;8.824;2023-06-22T11:59:14;39.40;28.70
66608;DHT22;53462;39.616;8.824;2023-06-22T12:01:40;39.40;29.10
66608;DHT22;53462;39.616;8.824;2023-06-22T12:04:06;39.70;29.30
66608;DHT22;53462;39.616;8.824;2023-06-22T12:06:32;39.40;28.10
66608;DHT22;53462;39.616;8.824;2023-06-22T12:08:59;39.10;29.00
66608;DHT22;53462;39.616;8.824;2023-06-22T12:11:25;39.40;28.50
66608;DHT22;53462;39.616;8.824;2023-06-22T12:13:51;39.40;28.50
66608;DHT22;53462;39.616;8.824;2023-06-22T12:16:16;39.10;28.70
66608;DHT22;53462;39.616;8.824;2023-06-22T12:18:42;39.00;28.80
66608;DHT22;53462;39.616;8.824;2023-06-22T12:21:08;39.10;28.90
66608;DHT22;53462;39.616;8.824;2023-06-22T12:23:34;39.50;28.60
66608;DHT22;53462;39.616;8.824;2023-06-22T12:26:00;39.30;28.60
66608;DHT22;53462;39.616;8.824;2023-06-22T12:28:27;39.60;27.90
66608;DHT22;53462;39.616;8.824;2023-06-22T12:30:53;39.60;28.20
66608;DHT22;53462;39.616;8.824;2023-06-22T12:33:18;39.50;28.90
66608;DHT22;53462;39.616;8.824;2023-06-22T12:35:46;39.70;28.40
66608;DHT22;53462;39.616;8.824;2023-06-22T12:38:14;40.00;29.20
66608;DHT22;53462;39.616;8.824;2023-06-22T12:40:40;40.00;28.50
66608;DHT22;53462;39.616;8.824;2023-06-22T12:43:06;39.80;29.10
66608;DHT22;53462;39.616;8.824;2023-06-22T12:45:33;40.00;28.20
66608;DHT22;53462;39.616;8.824;2023-06-22T12:48:00;39.80;28.40
66608;DHT22;53462;39.616;8.824;2023-06-22T12:50:26;39.90;27.60
66608;DHT22;53462;39.616;8.824;2023-06-22T12:52:52;39.80;27.80
66608;DHT22;53462;39.616;8.824;2023-06-22T12:55:18;39.90;27.20
66608;DHT22;53462;39.616;8.824;2023-06-22T12:57:44;39.60;27.80
66608;DHT22;53462;39.616;8.824;2023-06-22T13:00:10;39.80;31.30
66608;DHT22;53462;39.616;8.824;2023-06-22T13:02:37;40.00;29.10
66608;DHT22;53462;39.616;8.824;2023-06-22T13:05:03;40.50;28.20
66608;DHT22;53462;39.616;8.824;2023-06-22T13:07:30;40.60;28.20
66608;DHT22;53462;39.616;8.824;2023-06-22T13:09:56;40.30;27.90
66608;DHT22;53462;39.616;8.824;2023-06-22T13:12:22;40.10;27.10
66608;DHT22;53462;39.616;8.824;2023-06-22T13:14:49;40.00;28.10
66608;DHT22;53462;39.616;8.824;2023-06-22T13:17:15;40.40;27.50
66608;DHT22;53462;39.616;8.824;2023-06-22T13:19:41;40.50;29.60
66608;DHT22;53462;39.616;8.824;2023-06-22T13:22:27;40.40;31.40
66608;DHT22;53462;39.616;8.824;2023-06-22T13:24:58;40.20;32.30
